KCPS

St Louis Downtown Airport

Cahokia/St Louis, Illinois, USA
KCPS 212336Z 2200/2224 13012G20KT P6SM BKN240 FM220600 14012G21KT P6SM SCT250 WS020/17045KT FM221700 15012G21KT P6SM -DZ OVC025 WS020/18045KT FM221900 16014G21KT 6SM -RA SCT008 OVC015 WS020/18045KT FM222100 16016G22KT 4SM -RA OVC008 WS020/19055KT
Issued Valid From Valid To
Jan-21 @ 23:36 UTC
(an hour ago)
Jan-22 @ 00:00 UTC
(42 minutes ago)
Jan-23 @ 00:00 UTC
(in 23 hours)
Jan-22 @ 00:00 to Jan-22 @ 06:00
KCPS 212336Z 2200/2224 13012G20KT P6SM BKN240
Wind Visibility Clouds
130° at 12 knots
 Gusting to 20 knots
Greater than 6 miles
  • Broken at 24,000' AGL
From Jan-22 @ 06:00 to Jan-22 @ 17:00
FM220600 14012G21KT P6SM SCT250 WS020/17045KT
Wind Visibility Clouds
140° at 12 knots
 Gusting to 21 knots
 Wind shear 2,000' AGL from 170° at 45 knots
Greater than 6 miles
  • Scattered at 25,000' AGL
From Jan-22 @ 17:00 to Jan-22 @ 19:00
FM221700 15012G21KT P6SM -DZ OVC025 WS020/18045KT
Wind Visibility Clouds Conditions
150° at 12 knots
 Gusting to 21 knots
 Wind shear 2,000' AGL from 180° at 45 knots
Greater than 6 miles
  • Overcast at 2,500' AGL
  • Light Drizzle
From Jan-22 @ 19:00 to Jan-22 @ 21:00
FM221900 16014G21KT 6SM -RA SCT008 OVC015 WS020/18045KT
Wind Visibility Clouds Conditions
160° at 14 knots
 Gusting to 21 knots
 Wind shear 2,000' AGL from 180° at 45 knots
6 miles
  • Scattered at 800' AGL
  • Overcast at 1,500' AGL
  • Light Rain
From Jan-22 @ 21:00 to Jan-23 @ 00:00
FM222100 16016G22KT 4SM -RA OVC008 WS020/19055KT
Wind Visibility Clouds Conditions
160° at 16 knots
 Gusting to 22 knots
 Wind shear 2,000' AGL from 190° at 55 knots
4 miles
  • Overcast at 800' AGL
  • Light Rain
KCPS 212336Z 2200/2224 13012G20KT P6SM BKN240 FM220600 14012G21KT P6SM SCT250 WS020/17045KT FM221700 15012G21KT P6SM -DZ OVC025 WS020/18045KT FM221900 16014G21KT 6SM -RA SCT008 OVC015 WS020/18045KT FM222100 16016G22KT 4SM -RA OVC008 WS020/19055KT
Issued Jan-21 @ 23:36 UTC
(an hour ago)
Valid From Jan-22 @ 00:00 UTC
(42 minutes ago)
Valid To Jan-23 @ 00:00 UTC
(in 23 hours)
Jan-22 @ 00:00 - Jan-22 @ 06:00
Wind Visibility
130° at 12 knots
 Gusting to 20 knots
Greater than 6 miles
Clouds
  • Broken at 24,000' AGL
From Jan-22 @ 06:00 - Jan-22 @ 17:00
Wind Visibility
140° at 12 knots
 Gusting to 21 knots
Greater than 6 miles
Clouds
  • Scattered at 25,000' AGL
From Jan-22 @ 17:00 - Jan-22 @ 19:00
Wind Visibility
150° at 12 knots
 Gusting to 21 knots
Greater than 6 miles
Clouds
  • Overcast at 2,500' AGL
Conditions
  • Light Drizzle
From Jan-22 @ 19:00 - Jan-22 @ 21:00
Wind Visibility
160° at 14 knots
 Gusting to 21 knots
6 miles
Clouds
  • Scattered at 800' AGL
  • Overcast at 1,500' AGL
Conditions
  • Light Rain
From Jan-22 @ 21:00 - Jan-23 @ 00:00
Wind Visibility
160° at 16 knots
 Gusting to 22 knots
4 miles
Clouds
  • Overcast at 800' AGL
Conditions
  • Light Rain